createdAt,value
2019-02-19T00:01:50.684Z,5.08
2019-02-19T00:03:55.302Z,5.50
2019-02-19T00:05:59.522Z,5.15
2019-02-19T00:08:03.416Z,5.03
2019-02-19T00:10:09.415Z,5.28
2019-02-19T00:12:13.237Z,5.42
2019-02-19T00:14:17.723Z,5.75
2019-02-19T00:16:21.923Z,5.10
2019-02-19T00:18:26.022Z,5.92
2019-02-19T00:20:29.824Z,5.40
2019-02-19T00:22:34.049Z,5.30
2019-02-19T00:24:38.154Z,5.28
2019-02-19T00:26:42.271Z,5.58
2019-02-19T00:28:46.140Z,5.25
2019-02-19T00:30:50.279Z,5.20
2019-02-19T00:32:54.387Z,4.92
2019-02-19T00:34:58.509Z,5.20
2019-02-19T00:37:02.605Z,5.17
2019-02-19T00:39:09.997Z,5.60
2019-02-19T00:41:13.852Z,5.30
2019-02-19T00:43:18.011Z,4.78
2019-02-19T00:45:22.132Z,5.30
2019-02-19T00:47:26.240Z,5.20
2019-02-19T00:49:30.347Z,5.30
2019-02-19T00:51:34.158Z,5.20
2019-02-19T00:53:38.271Z,5.70
2019-02-19T00:55:43.908Z,5.28
2019-02-19T00:57:48.024Z,4.90
2019-02-19T00:59:52.121Z,5.08
2019-02-19T01:01:56.227Z,4.50
2019-02-19T01:04:00.031Z,4.75
2019-02-19T01:06:04.249Z,4.97
2019-02-19T01:08:08.079Z,5.17
2019-02-19T01:10:13.802Z,5.03
2019-02-19T01:12:18.009Z,5.17
2019-02-19T01:14:21.832Z,4.50
2019-02-19T01:16:26.349Z,5.62
2019-02-19T01:18:30.179Z,5.30
2019-02-19T01:20:33.979Z,4.70
2019-02-19T01:22:38.367Z,4.60
2019-02-19T01:24:42.195Z,5.47
2019-02-19T01:26:46.364Z,5.70
2019-02-19T01:28:50.167Z,4.83
2019-02-19T01:30:54.288Z,4.47
2019-02-19T01:32:59.017Z,5.42
2019-02-19T01:35:03.235Z,4.62
2019-02-19T01:37:07.437Z,5.40
2019-02-19T01:39:11.249Z,4.85
2019-02-19T01:41:15.347Z,4.80
2019-02-19T01:43:19.173Z,4.78
2019-02-19T01:45:22.973Z,5.35
2019-02-19T01:47:27.355Z,5.05
2019-02-19T01:49:31.189Z,5.00
2019-02-19T01:51:35.386Z,5.10
2019-02-19T01:53:39.592Z,5.03
2019-02-19T01:55:43.707Z,5.75
2019-02-19T01:57:49.166Z,5.40
2019-02-19T01:59:53.370Z,5.15
2019-02-19T02:01:57.484Z,5.83
2019-02-19T02:04:01.598Z,5.17
2019-02-19T02:06:05.430Z,5.40
2019-02-19T02:08:09.595Z,5.70
2019-02-19T02:10:13.724Z,6.20
2019-02-19T02:12:17.546Z,5.37
2019-02-19T02:14:21.734Z,5.62
2019-02-19T02:16:26.354Z,5.35
2019-02-19T02:18:30.460Z,5.30
2019-02-19T02:20:34.572Z,5.25
2019-02-19T02:22:38.679Z,5.87
2019-02-19T02:24:43.848Z,5.60
2019-02-19T02:26:49.788Z,5.50
2019-02-19T02:28:55.257Z,5.53
2019-02-19T02:30:59.436Z,5.40
2019-02-19T02:33:03.242Z,5.53
2019-02-19T02:35:07.440Z,5.70
2019-02-19T02:37:11.243Z,5.62
2019-02-19T02:39:15.072Z,5.25
2019-02-19T02:41:19.160Z,5.20
2019-02-19T02:43:23.268Z,5.78
2019-02-19T02:45:27.990Z,5.67
2019-02-19T02:47:32.086Z,5.15
2019-02-19T02:49:36.224Z,6.37
2019-02-19T02:51:40.044Z,6.00
2019-02-19T02:53:44.114Z,6.00
2019-02-19T02:55:47.926Z,5.37
2019-02-19T02:57:51.734Z,5.90
2019-02-19T02:59:55.956Z,5.20
2019-02-19T03:02:00.066Z,5.83
2019-02-19T03:04:05.528Z,5.72
2019-02-19T03:06:14.003Z,5.95
2019-02-19T03:08:18.120Z,5.17
2019-02-19T03:10:21.943Z,5.60
2019-02-19T03:12:26.143Z,5.95
2019-02-19T03:14:30.130Z,5.97
2019-02-19T03:16:37.323Z,5.50
2019-02-19T03:18:41.132Z,5.65
2019-02-19T03:20:45.244Z,6.00
2019-02-19T03:22:49.451Z,5.37
2019-02-19T03:24:53.557Z,5.58
2019-02-19T03:26:57.367Z,5.85
2019-02-19T03:29:04.094Z,5.55
2019-02-19T03:31:07.910Z,6.00
2019-02-19T03:33:12.049Z,5.55
2019-02-19T03:35:16.165Z,5.80
2019-02-19T03:37:20.278Z,5.97
2019-02-19T03:39:25.299Z,6.55
2019-02-19T03:41:30.662Z,5.78
2019-02-19T03:43:34.483Z,6.15
2019-02-19T03:45:38.656Z,5.80
2019-02-19T03:47:44.317Z,5.87
2019-02-19T03:49:48.406Z,5.83
2019-02-19T03:51:53.346Z,5.70
2019-02-19T03:53:57.694Z,6.05
2019-02-19T03:56:01.382Z,6.60
2019-02-19T03:58:05.786Z,6.28
2019-02-19T04:00:10.010Z,6.53
2019-02-19T04:02:14.506Z,6.08
2019-02-19T04:04:18.622Z,6.55
2019-02-19T04:06:22.451Z,6.40
2019-02-19T04:08:26.631Z,7.08
2019-02-19T04:10:30.745Z,5.80
2019-02-19T04:12:35.533Z,6.08
2019-02-19T04:14:39.367Z,5.72
2019-02-19T04:16:43.483Z,5.42
2019-02-19T04:18:47.600Z,6.12
2019-02-19T04:20:51.704Z,6.72
2019-02-19T04:22:55.683Z,6.53
2019-02-19T04:24:59.818Z,5.92
2019-02-19T04:27:03.723Z,6.40
2019-02-19T04:29:07.607Z,6.55
2019-02-19T04:31:11.483Z,6.72
2019-02-19T04:33:15.652Z,6.40
2019-02-19T04:35:19.495Z,6.37
2019-02-19T04:37:23.679Z,6.35
2019-02-19T04:39:27.883Z,7.28
2019-02-19T04:41:31.984Z,5.97
2019-02-19T04:43:36.099Z,6.78
2019-02-19T04:45:40.315Z,7.22
2019-02-19T04:47:45.638Z,6.55
2019-02-19T04:49:49.770Z,6.58
2019-02-19T04:51:53.597Z,7.00
2019-02-19T04:53:57.465Z,6.85
2019-02-19T04:56:01.766Z,6.30
2019-02-19T04:58:05.598Z,6.58
2019-02-19T05:00:14.041Z,6.92
2019-02-19T05:02:18.199Z,6.83
2019-02-19T05:04:22.025Z,6.60
2019-02-19T05:06:26.213Z,6.85
2019-02-19T05:08:30.038Z,6.78
2019-02-19T05:10:34.013Z,6.62
2019-02-19T05:12:38.155Z,6.72
2019-02-19T05:14:42.347Z,7.10
2019-02-19T05:16:46.569Z,7.53
2019-02-19T05:18:52.027Z,6.50
2019-02-19T05:20:56.138Z,6.90
2019-02-19T05:22:59.991Z,7.73
2019-02-19T05:25:07.183Z,7.70
2019-02-19T05:27:11.423Z,7.67
2019-02-19T05:29:15.632Z,6.97
2019-02-19T05:31:19.757Z,7.67
2019-02-19T05:33:23.839Z,6.45
2019-02-19T05:35:27.765Z,7.65
2019-02-19T05:37:33.203Z,8.13
2019-02-19T05:39:37.310Z,7.53
2019-02-19T05:41:41.144Z,7.42
2019-02-19T05:43:45.022Z,8.27
2019-02-19T05:45:49.039Z,7.92
2019-02-19T05:47:53.235Z,7.40
2019-02-19T05:49:57.343Z,7.80
2019-02-19T05:52:01.560Z,7.62
2019-02-19T05:54:05.663Z,7.90
2019-02-19T05:56:10.997Z,8.28
2019-02-19T05:58:15.225Z,7.40
2019-02-19T06:00:19.336Z,7.33
2019-02-19T06:02:23.439Z,8.30
2019-02-19T06:04:27.263Z,7.50
2019-02-19T06:06:31.063Z,6.78
2019-02-19T06:08:35.255Z,7.20
2019-02-19T06:10:41.490Z,7.37
2019-02-19T06:12:45.619Z,7.03
2019-02-19T06:14:49.837Z,7.95
2019-02-19T06:16:58.491Z,8.63
2019-02-19T06:18:59.617Z,7.35
2019-02-19T06:21:03.829Z,7.78
2019-02-19T06:23:07.639Z,7.42
2019-02-19T06:25:11.826Z,8.30
2019-02-19T06:27:15.678Z,9.05
2019-02-19T06:29:19.497Z,8.40
2019-02-19T06:31:23.330Z,7.55
2019-02-19T06:33:27.501Z,7.37
2019-02-19T06:35:31.578Z,8.55
2019-02-19T06:37:35.784Z,8.60
2019-02-19T06:39:41.841Z,8.45
2019-02-19T06:41:45.686Z,7.65
2019-02-19T06:43:49.846Z,8.30
2019-02-19T06:45:53.658Z,8.63
2019-02-19T06:47:57.754Z,8.10
2019-02-19T06:50:01.967Z,8.20
2019-02-19T06:52:06.081Z,9.38
2019-02-19T06:54:09.935Z,8.90
2019-02-19T06:56:14.089Z,8.60
2019-02-19T06:58:18.201Z,8.40
2019-02-19T07:00:22.923Z,7.85
2019-02-19T07:02:40.069Z,7.70
2019-02-19T07:04:45.532Z,8.93
2019-02-19T07:06:49.377Z,8.80
2019-02-19T07:08:53.497Z,8.80
2019-02-19T07:10:57.715Z,8.35
2019-02-19T07:13:01.516Z,8.05
2019-02-19T07:15:07.494Z,8.80
2019-02-19T07:17:15.683Z,8.03
2019-02-19T07:19:19.065Z,8.43
2019-02-19T07:21:23.180Z,9.03
2019-02-19T07:23:27.295Z,8.88
2019-02-19T07:25:31.120Z,8.98
2019-02-19T07:27:34.967Z,9.43
2019-02-19T07:29:39.109Z,8.78
2019-02-19T07:31:42.916Z,9.60
2019-02-19T07:33:47.016Z,8.53
2019-02-19T07:35:54.723Z,8.80
2019-02-19T07:37:58.742Z,8.43
2019-02-19T07:40:02.583Z,8.93
2019-02-19T07:42:06.729Z,8.18
2019-02-19T07:44:10.791Z,7.92
2019-02-19T07:46:14.969Z,8.73
2019-02-19T07:48:19.076Z,9.10
2019-02-19T07:50:23.175Z,8.13
2019-02-19T07:52:27.006Z,8.95
2019-02-19T07:54:31.193Z,8.88
2019-02-19T07:56:35.323Z,8.23
2019-02-19T07:58:41.466Z,8.58
2019-02-19T08:00:45.275Z,9.00
2019-02-19T08:02:49.083Z,8.40
2019-02-19T08:04:53.284Z,9.00
2019-02-19T08:06:57.403Z,9.75
2019-02-19T08:09:01.496Z,9.28
2019-02-19T08:11:05.338Z,9.40
2019-02-19T08:13:09.152Z,10.00
2019-02-19T08:15:13.319Z,9.35
2019-02-19T08:17:17.523Z,9.63
2019-02-19T08:19:21.655Z,9.43
2019-02-19T08:21:25.481Z,10.18
2019-02-19T08:23:30.015Z,10.30
2019-02-19T08:25:34.179Z,10.40
2019-02-19T08:27:37.991Z,9.28
2019-02-19T08:29:42.189Z,10.28
2019-02-19T08:31:46.295Z,10.40
2019-02-19T08:33:50.424Z,10.15
2019-02-19T08:35:58.084Z,9.73
2019-02-19T08:38:03.683Z,8.83
2019-02-19T08:40:10.023Z,11.38
2019-02-19T08:42:13.879Z,10.70
2019-02-19T08:44:18.044Z,10.63
2019-02-19T08:46:22.247Z,10.88
2019-02-19T08:48:26.109Z,10.75
2019-02-19T08:50:29.940Z,10.28
2019-02-19T08:52:35.598Z,10.45
2019-02-19T08:54:39.807Z,9.63
2019-02-19T08:56:43.654Z,10.35
2019-02-19T08:58:47.516Z,11.83
2019-02-19T09:00:51.632Z,10.90
2019-02-19T09:02:55.745Z,11.35
2019-02-19T09:04:59.947Z,10.85
2019-02-19T09:07:03.787Z,10.90
2019-02-19T09:09:07.959Z,10.15
2019-02-19T09:11:11.844Z,10.35
2019-02-19T09:13:15.992Z,9.90
2019-02-19T09:15:20.182Z,11.93
2019-02-19T09:17:24.314Z,10.23
2019-02-19T09:19:28.520Z,10.20
2019-02-19T09:21:32.362Z,10.03
2019-02-19T09:23:36.193Z,10.48
2019-02-19T09:25:40.330Z,11.53
2019-02-19T09:27:44.547Z,11.53
2019-02-19T09:29:48.648Z,11.53
2019-02-19T09:31:54.513Z,13.08
2019-02-19T09:33:58.746Z,11.97
2019-02-19T09:36:02.573Z,11.83
2019-02-19T09:38:06.668Z,13.30
2019-02-19T09:40:11.186Z,13.60
2019-02-19T09:42:15.370Z,12.18
2019-02-19T09:44:19.582Z,11.83
2019-02-19T09:46:23.433Z,12.07
2019-02-19T09:48:27.616Z,11.35
2019-02-19T09:50:31.442Z,14.10
2019-02-19T09:52:35.611Z,12.00
2019-02-19T09:54:39.827Z,11.85
2019-02-19T09:56:45.983Z,12.58
2019-02-19T09:58:50.084Z,9.45
2019-02-19T10:00:54.214Z,10.50
2019-02-19T10:02:58.031Z,9.83
2019-02-19T10:05:02.223Z,12.80
2019-02-19T10:07:06.089Z,11.68
2019-02-19T10:09:10.227Z,11.53
2019-02-19T10:11:14.347Z,15.90
2019-02-19T10:13:18.551Z,17.42
2019-02-19T10:15:22.380Z,11.33
2019-02-19T10:17:26.204Z,13.35
2019-02-19T10:19:30.052Z,11.88
2019-02-19T10:21:34.176Z,13.05
2019-02-19T10:23:38.038Z,12.40
2019-02-19T10:25:44.680Z,12.25
2019-02-19T10:27:48.530Z,13.53
2019-02-19T10:29:52.860Z,12.43
2019-02-19T10:31:56.980Z,12.30
2019-02-19T10:34:04.277Z,11.80
2019-02-19T10:36:08.484Z,12.65
2019-02-19T10:38:12.321Z,13.00
2019-02-19T10:40:18.131Z,13.45
2019-02-19T10:42:22.352Z,13.28
2019-02-19T10:44:27.656Z,12.88
2019-02-19T10:46:31.799Z,12.98
2019-02-19T10:48:37.372Z,11.28
2019-02-19T10:50:42.066Z,12.18
2019-02-19T10:52:46.482Z,12.25
2019-02-19T10:54:51.206Z,12.03
2019-02-19T10:56:55.417Z,13.10
2019-02-19T10:58:59.271Z,11.78
2019-02-19T11:01:03.080Z,12.80
2019-02-19T11:03:07.241Z,15.28
2019-02-19T11:05:11.868Z,14.55
2019-02-19T11:07:15.963Z,13.20
2019-02-19T11:09:20.189Z,12.80
2019-02-19T11:11:24.283Z,13.18
2019-02-19T11:13:28.390Z,13.03
2019-02-19T11:15:32.608Z,11.35
2019-02-19T11:17:36.440Z,12.43
2019-02-19T11:19:40.260Z,12.98
2019-02-19T11:21:44.422Z,13.10
2019-02-19T11:23:48.543Z,13.25
2019-02-19T11:25:52.752Z,13.60
2019-02-19T11:27:56.865Z,13.25
2019-02-19T11:30:00.382Z,12.93
2019-02-19T11:32:04.313Z,11.93
2019-02-19T11:34:08.484Z,13.10
2019-02-19T11:36:12.901Z,12.03
2019-02-19T11:38:16.729Z,12.55
2019-02-19T11:40:20.597Z,12.03
2019-02-19T11:42:24.718Z,12.05
2019-02-19T11:44:28.929Z,10.40
2019-02-19T11:46:32.726Z,11.10
2019-02-19T11:48:37.158Z,9.43
2019-02-19T11:50:41.172Z,9.83
2019-02-19T11:52:45.105Z,10.07
2019-02-19T11:54:48.967Z,9.87
2019-02-19T11:56:52.875Z,9.20
2019-02-19T11:58:56.776Z,9.37
2019-02-19T12:01:00.883Z,8.63
2019-02-19T12:03:04.701Z,8.50
2019-02-19T12:05:08.623Z,8.50
2019-02-19T12:07:12.505Z,8.60
2019-02-19T12:09:16.302Z,8.07
2019-02-19T12:11:20.211Z,8.43
2019-02-19T12:13:24.019Z,7.20
2019-02-19T12:15:34.870Z,8.50
2019-02-19T12:17:33.567Z,7.97
2019-02-19T12:19:37.359Z,7.90
2019-02-19T12:21:41.182Z,7.47
2019-02-19T12:23:45.328Z,6.60
2019-02-19T12:25:49.180Z,6.87
2019-02-19T12:27:54.235Z,6.77
2019-02-19T12:29:58.127Z,5.23
2019-02-19T12:32:01.925Z,5.27
2019-02-19T12:34:05.471Z,5.17
2019-02-19T12:36:08.991Z,4.77
2019-02-19T12:38:12.822Z,5.20
2019-02-19T12:40:16.730Z,5.00
2019-02-19T12:42:20.255Z,5.13
2019-02-19T12:44:23.787Z,4.87
2019-02-19T12:46:27.333Z,5.93
2019-02-19T12:48:31.219Z,5.40
2019-02-19T12:50:34.748Z,5.33
2019-02-19T12:52:40.196Z,5.27
2019-02-19T12:54:43.739Z,4.80
2019-02-19T12:56:47.563Z,5.00
2019-02-19T12:58:51.465Z,5.10
2019-02-19T13:00:55.271Z,4.93
2019-02-19T13:02:59.171Z,5.17
2019-02-19T13:05:02.982Z,5.37
2019-02-19T13:07:06.531Z,5.10
2019-02-19T13:09:10.377Z,5.13
2019-02-19T13:11:14.181Z,5.40
2019-02-19T13:13:17.701Z,5.40
2019-02-19T13:15:22.789Z,5.97
2019-02-19T13:17:26.711Z,5.60
2019-02-19T13:19:32.073Z,5.57
2019-02-19T13:21:36.071Z,5.60
2019-02-19T13:23:39.861Z,5.37
2019-02-19T13:25:43.458Z,5.73
2019-02-19T13:27:47.367Z,5.53
2019-02-19T13:29:51.181Z,5.17
2019-02-19T13:31:55.146Z,4.77
2019-02-19T13:33:58.989Z,5.43
2019-02-19T13:36:02.987Z,4.77
2019-02-19T13:38:06.938Z,4.77
2019-02-19T13:40:12.797Z,3.70
2019-02-19T13:42:16.331Z,2.97
2019-02-19T13:44:20.151Z,2.50
2019-02-19T13:46:23.684Z,2.57
2019-02-19T13:48:27.665Z,2.50
2019-02-19T13:50:32.680Z,2.50
2019-02-19T13:52:38.133Z,2.23
2019-02-19T13:54:42.658Z,2.73
2019-02-19T13:56:46.169Z,2.20
2019-02-19T13:58:50.046Z,2.30
2019-02-19T14:00:53.949Z,3.00
2019-02-19T14:02:57.753Z,2.90
2019-02-19T14:05:01.551Z,2.63
2019-02-19T14:07:05.247Z,3.40
2019-02-19T14:09:08.761Z,2.33
2019-02-19T14:11:12.563Z,2.87
2019-02-19T14:13:16.099Z,2.60
2019-02-19T14:15:26.863Z,2.53
2019-02-19T14:17:30.741Z,2.47
2019-02-19T14:19:41.736Z,2.50
2019-02-19T14:21:59.427Z,2.93
2019-02-19T14:24:20.881Z,2.50
2019-02-19T14:26:32.049Z,1.77
2019-02-19T14:28:40.419Z,2.07
2019-02-19T14:31:00.879Z,2.00
2019-02-19T14:33:13.623Z,2.23
2019-02-19T14:35:28.094Z,1.60
2019-02-19T14:37:33.294Z,1.50
2019-02-19T14:39:38.751Z,1.47
2019-02-19T14:41:55.768Z,1.80
2019-02-19T14:44:13.112Z,2.17
2019-02-19T14:46:24.576Z,1.93
2019-02-19T14:48:42.027Z,1.87
2019-02-19T14:51:03.416Z,2.00
2019-02-19T14:53:08.861Z,2.17
2019-02-19T14:55:32.736Z,1.77
2019-02-19T14:57:50.097Z,1.90
2019-02-19T14:59:58.377Z,1.70
2019-02-19T15:02:20.087Z,1.93
2019-02-19T15:04:41.228Z,2.20
2019-02-19T15:06:46.405Z,2.27
2019-02-19T15:09:08.054Z,2.20
2019-02-19T15:11:16.008Z,2.60
2019-02-19T15:13:27.027Z,2.90
2019-02-19T15:15:32.673Z,2.30
2019-02-19T15:17:53.153Z,2.67
2019-02-19T15:19:58.617Z,2.97
2019-02-19T15:22:20.448Z,2.93
2019-02-19T15:24:42.053Z,2.90
2019-02-19T15:26:47.598Z,3.47
2019-02-19T15:29:05.123Z,3.07
2019-02-19T15:31:28.895Z,2.73
2019-02-19T15:33:34.054Z,3.27
2019-02-19T15:35:47.707Z,3.20
2019-02-19T15:38:02.219Z,3.33
2019-02-19T15:40:17.801Z,3.13
2019-02-19T15:42:23.336Z,3.13
2019-02-19T15:44:40.485Z,3.45
2019-02-19T15:46:48.957Z,3.00
2019-02-19T15:49:11.313Z,2.98
2019-02-19T15:51:19.512Z,2.62
2019-02-19T15:53:25.242Z,2.50
2019-02-19T15:55:36.844Z,2.83
2019-02-19T15:58:04.594Z,2.95
2019-02-19T16:00:10.442Z,2.95
2019-02-19T16:02:34.219Z,3.15
2019-02-19T16:04:39.841Z,3.30
2019-02-19T16:06:45.514Z,3.02
2019-02-19T16:09:09.449Z,3.40
2019-02-19T16:11:21.077Z,3.12
2019-02-19T16:13:29.607Z,3.15
2019-02-19T16:15:35.081Z,3.47
2019-02-19T16:17:40.923Z,3.02
2019-02-19T16:19:46.740Z,2.87
2019-02-19T16:21:58.460Z,3.00
2019-02-19T16:24:04.297Z,3.35
2019-02-19T16:26:28.361Z,3.72
2019-02-19T16:28:36.969Z,3.58
2019-02-19T16:30:51.842Z,3.05
2019-02-19T16:33:00.560Z,3.00
2019-02-19T16:35:07.260Z,2.50
2019-02-19T16:37:21.992Z,3.20
2019-02-19T16:39:33.474Z,3.50
2019-02-19T16:41:39.219Z,3.42
2019-02-19T16:43:44.971Z,3.25
2019-02-19T16:45:50.816Z,3.33
2019-02-19T16:48:02.430Z,3.22
2019-02-19T16:50:11.010Z,3.27
2019-02-19T16:52:16.447Z,2.90
2019-02-19T16:54:21.900Z,3.20
2019-02-19T16:56:36.458Z,3.12
2019-02-19T16:58:48.181Z,2.70
2019-02-19T17:00:56.354Z,2.80
2019-02-19T17:03:04.442Z,2.77
2019-02-19T17:05:13.008Z,3.02
2019-02-19T17:07:20.860Z,3.08
2019-02-19T17:09:43.095Z,2.85
2019-02-19T17:11:51.614Z,3.25
2019-02-19T17:13:58.600Z,2.87
2019-02-19T17:16:22.772Z,2.95
2019-02-19T17:18:37.145Z,3.55
2019-02-19T17:20:42.868Z,3.42
2019-02-19T17:22:51.439Z,3.52
2019-02-19T17:25:11.928Z,3.75
2019-02-19T17:27:17.726Z,4.62
2019-02-19T17:29:23.282Z,3.65
2019-02-19T17:31:40.898Z,4.42
2019-02-19T17:33:46.464Z,4.00
2019-02-19T17:35:54.998Z,3.87
2019-02-19T17:38:00.803Z,3.83
2019-02-19T17:40:11.576Z,4.00
2019-02-19T17:42:19.500Z,4.72
2019-02-19T17:44:34.389Z,4.17
2019-02-19T17:46:54.734Z,4.17
2019-02-19T17:49:00.183Z,3.92
2019-02-19T17:51:20.546Z,3.95
2019-02-19T17:53:38.402Z,4.20
2019-02-19T17:55:49.456Z,4.72
2019-02-19T17:58:13.311Z,4.25
2019-02-19T18:00:31.485Z,4.87
2019-02-19T18:02:43.143Z,4.20
2019-02-19T18:05:14.357Z,4.53
2019-02-19T18:07:20.172Z,4.62
2019-02-19T18:09:33.836Z,4.67
2019-02-19T18:11:39.662Z,4.35
2019-02-19T18:13:56.783Z,4.75
2019-02-19T18:16:03.133Z,4.40
2019-02-19T18:18:11.682Z,4.25
2019-02-19T18:20:16.260Z,4.37
2019-02-19T18:22:20.075Z,4.97
2019-02-19T18:24:24.306Z,5.65
2019-02-19T18:26:28.804Z,5.10
2019-02-19T18:28:32.612Z,4.62
2019-02-19T18:30:36.821Z,4.62
2019-02-19T18:32:41.064Z,5.25
2019-02-19T18:34:44.874Z,5.08
2019-02-19T18:36:48.836Z,5.20
2019-02-19T18:38:57.211Z,4.85
2019-02-19T18:41:01.377Z,4.72
2019-02-19T18:43:05.573Z,5.25
2019-02-19T18:45:10.202Z,4.55
2019-02-19T18:47:14.396Z,4.85
2019-02-19T18:49:18.622Z,4.55
2019-02-19T18:51:23.176Z,4.65
2019-02-19T18:53:27.262Z,4.60
2019-02-19T18:55:31.132Z,4.78
2019-02-19T18:57:34.946Z,4.35
2019-02-19T18:59:39.080Z,5.15
2019-02-19T19:01:43.268Z,4.35
2019-02-19T19:03:48.930Z,4.95
2019-02-19T19:05:54.535Z,4.53
2019-02-19T19:07:59.298Z,4.90
2019-02-19T19:10:03.820Z,4.60
2019-02-19T19:12:07.671Z,4.62
2019-02-19T19:14:11.840Z,4.35
2019-02-19T19:16:15.665Z,4.70
2019-02-19T19:18:19.866Z,5.37
2019-02-19T19:20:23.673Z,5.03
2019-02-19T19:22:27.506Z,5.15
2019-02-19T19:24:33.088Z,5.12
2019-02-19T19:26:36.879Z,5.30
2019-02-19T19:28:41.596Z,5.00
2019-02-19T19:30:45.746Z,4.90
2019-02-19T19:32:49.854Z,4.65
2019-02-19T19:34:53.963Z,4.28
2019-02-19T19:36:59.552Z,4.60
2019-02-19T19:39:05.100Z,4.50
2019-02-19T19:41:08.911Z,5.17
2019-02-19T19:43:12.846Z,4.78
2019-02-19T19:45:16.959Z,5.10
2019-02-19T19:47:20.809Z,5.53
2019-02-19T19:49:26.526Z,5.33
2019-02-19T19:51:30.679Z,5.37
2019-02-19T19:53:36.152Z,5.30
2019-02-19T19:55:39.975Z,5.30
2019-02-19T19:57:43.865Z,5.53
2019-02-19T19:59:47.669Z,5.50
2019-02-19T20:01:51.823Z,5.75
2019-02-19T20:03:55.644Z,5.87
2019-02-19T20:05:59.523Z,5.47
2019-02-19T20:08:03.392Z,6.92
2019-02-19T20:10:15.064Z,8.20
2019-02-19T20:12:18.904Z,20.92
2019-02-19T20:14:23.111Z,10.80
2019-02-19T20:16:28.878Z,5.70
2019-02-19T20:18:38.979Z,6.37
2019-02-19T20:20:38.925Z,13.38
2019-02-19T20:22:43.031Z,8.95
2019-02-19T20:24:47.150Z,7.70
2019-02-19T20:26:51.354Z,6.05
2019-02-19T20:28:55.903Z,6.42
2019-02-19T20:31:00.084Z,5.90
2019-02-19T20:33:04.299Z,5.97
2019-02-19T20:35:10.052Z,6.20
2019-02-19T20:37:14.980Z,7.15
2019-02-19T20:39:19.186Z,8.50
2019-02-19T20:41:23.404Z,7.92
2019-02-19T20:43:27.516Z,6.53
2019-02-19T20:45:31.733Z,5.87
2019-02-19T20:47:35.929Z,5.50
2019-02-19T20:49:39.758Z,7.65
2019-02-19T20:51:43.943Z,5.85
2019-02-19T20:53:47.759Z,6.47
2019-02-19T20:55:51.961Z,6.53
2019-02-19T20:57:56.171Z,6.40
2019-02-19T21:00:00.365Z,6.00
2019-02-19T21:02:05.206Z,6.22
2019-02-19T21:04:09.060Z,6.47
2019-02-19T21:06:12.897Z,6.80
2019-02-19T21:08:17.145Z,6.60
2019-02-19T21:10:21.662Z,6.47
2019-02-19T21:12:25.769Z,6.70
2019-02-19T21:14:30.698Z,5.97
2019-02-19T21:16:34.912Z,6.87
2019-02-19T21:18:39.027Z,6.22
2019-02-19T21:20:42.845Z,5.97
2019-02-19T21:22:47.027Z,6.10
2019-02-19T21:24:51.141Z,5.83
2019-02-19T21:26:54.986Z,6.60
2019-02-19T21:28:59.162Z,6.17
2019-02-19T21:31:03.846Z,6.28
2019-02-19T21:33:07.985Z,6.50
2019-02-19T21:35:12.093Z,5.70
2019-02-19T21:37:15.909Z,5.17
2019-02-19T21:39:20.008Z,6.28
2019-02-19T21:41:24.231Z,6.35
2019-02-19T21:43:28.059Z,6.95
2019-02-19T21:45:32.131Z,7.65
2019-02-19T21:47:36.363Z,7.55
2019-02-19T21:49:40.569Z,8.25
2019-02-19T21:51:44.682Z,7.25
2019-02-19T21:53:50.521Z,7.33
2019-02-19T21:55:54.643Z,7.37
2019-02-19T21:57:59.744Z,7.60
2019-02-19T22:00:05.997Z,7.75
2019-02-19T22:02:16.297Z,8.13
2019-02-19T22:04:15.727Z,8.03
2019-02-19T22:06:22.125Z,7.10
2019-02-19T22:08:25.433Z,7.22
2019-02-19T22:10:30.173Z,7.15
2019-02-19T22:12:33.987Z,7.17
2019-02-19T22:14:38.074Z,6.80
2019-02-19T22:16:42.296Z,7.72
2019-02-19T22:18:46.399Z,8.73
2019-02-19T22:21:07.177Z,8.45
2019-02-19T22:23:11.321Z,7.87
2019-02-19T22:25:15.521Z,7.90
2019-02-19T22:27:19.336Z,7.72
2019-02-19T22:29:23.172Z,8.15
2019-02-19T22:31:27.352Z,6.72
2019-02-19T22:33:31.560Z,8.03
2019-02-19T22:35:35.767Z,8.08
2019-02-19T22:37:41.529Z,8.10
2019-02-19T22:39:47.334Z,7.53
2019-02-19T22:41:51.680Z,7.72
2019-02-19T22:43:55.498Z,7.90
2019-02-19T22:45:59.732Z,7.37
2019-02-19T22:48:03.818Z,6.40
2019-02-19T22:50:09.581Z,5.60
2019-02-19T22:52:13.663Z,6.42
2019-02-19T22:54:19.126Z,8.23
2019-02-19T22:56:24.961Z,7.12
2019-02-19T22:58:29.170Z,7.80
2019-02-19T23:00:49.598Z,6.55
2019-02-19T23:02:53.782Z,7.08
2019-02-19T23:04:57.986Z,6.72
2019-02-19T23:07:02.094Z,6.65
2019-02-19T23:09:06.724Z,7.30
2019-02-19T23:11:10.556Z,8.15
2019-02-19T23:13:15.148Z,8.48
2019-02-19T23:15:19.371Z,7.45
2019-02-19T23:17:23.465Z,7.80
2019-02-19T23:19:27.580Z,6.97
2019-02-19T23:21:31.786Z,6.90
2019-02-19T23:23:35.603Z,6.15
2019-02-19T23:25:39.466Z,7.37
2019-02-19T23:27:43.606Z,6.83
2019-02-19T23:29:47.724Z,7.55
2019-02-19T23:31:51.567Z,6.75
2019-02-19T23:33:55.730Z,7.22
2019-02-19T23:36:16.544Z,8.38
2019-02-19T23:38:21.518Z,7.85
2019-02-19T23:40:25.330Z,7.67
2019-02-19T23:42:29.492Z,7.58
2019-02-19T23:44:33.602Z,8.63
2019-02-19T23:46:37.484Z,8.45
2019-02-19T23:48:41.624Z,8.85
2019-02-19T23:50:45.711Z,8.15
2019-02-19T23:52:49.841Z,7.87
2019-02-19T23:54:55.668Z,8.65
2019-02-19T23:57:01.838Z,7.95
2019-02-19T23:59:05.943Z,10.30
